Executive Decision — CFK9267 — position and weather

sailwx.info

Track history (hours):
 
Tides and Currents Weather Stations Pressure Air Temp Water Temp Dewpoint Dewpoint Depression Visibility Wind Speed Wind Dir Waves Ship Positions

Executive Decision

Last reported at 2018-Jan-05 15:49 UTC. Time now 2018-Apr-24 07:07 UTC.
Position N 33°14' W 117°29'.
Warning: this ship's position is months out of date.

Length 14 m.

Type: Pleasure craft. MMSI: 316015863.

Date/timePositionNaut miles runAvg speedWind from/ knotsBaromVisibWave heightAir tempDewpointWater temp
2018-Jan-05 15:49N 33°14' W 117°29'2 7.2
2018-Jan-05 15:30N 33°13' W 117°26'2 0.1
2018-Jan-05 00:01N 33°12' W 117°24'0 9.6
2018-Jan-05 00:00N 33°12' W 117°24'5 9.2
2018-Jan-04 23:29N 33°07' W 117°23'4 8.0
2018-Jan-04 23:00N 33°03' W 117°22'3 6.5
2018-Jan-04 22:29N 32°60' W 117°22'4 8.9
2018-Jan-04 22:00N 32°56' W 117°21'4 8.8
2018-Jan-04 21:30N 32°51' W 117°20'1 0.0
2018-Jan-02 20:06N 32°51' W 117°19'1 7.8
2018-Jan-02 19:59N 32°52' W 117°19'4 7.9
2018-Jan-02 19:30N 32°56' W 117°20'5 8.0
2018-Jan-02 18:53N 33°01' W 117°21'3 7.3
2018-Jan-02 18:30N 33°04' W 117°22'4 7.3
2018-Jan-02 17:54N 33°08' W 117°23'3 7.3
2018-Jan-02 17:30N 33°11' W 117°24'  
Track history (hours):
 
Tides and Currents Weather Stations Pressure Air Temp Water Temp Dewpoint Dewpoint Depression Visibility Wind Speed Wind Dir Waves Ship Positions

Executive Decision

Last reported at 2018-Jan-05 15:49 UTC. Time now 2018-Apr-24 07:07 UTC.
Position N 33°14' W 117°29'.
Warning: this ship's position is months out of date.

Length 14 m.

Type: Pleasure craft. MMSI: 316015863.

Date/timePositionNaut miles runAvg speedWind from/ knotsBaromVisibWave heightAir tempDewpointWater temp
2018-Jan-05 15:49N 33°14' W 117°29'2 7.2
2018-Jan-05 15:30N 33°13' W 117°26'2 0.1
2018-Jan-05 00:01N 33°12' W 117°24'0 9.6
2018-Jan-05 00:00N 33°12' W 117°24'5 9.2
2018-Jan-04 23:29N 33°07' W 117°23'4 8.0
2018-Jan-04 23:00N 33°03' W 117°22'3 6.5
2018-Jan-04 22:29N 32°60' W 117°22'4 8.9
2018-Jan-04 22:00N 32°56' W 117°21'4 8.8
2018-Jan-04 21:30N 32°51' W 117°20'1 0.0
2018-Jan-02 20:06N 32°51' W 117°19'1 7.8
2018-Jan-02 19:59N 32°52' W 117°19'4 7.9
2018-Jan-02 19:30N 32°56' W 117°20'5 8.0
2018-Jan-02 18:53N 33°01' W 117°21'3 7.3
2018-Jan-02 18:30N 33°04' W 117°22'4 7.3
2018-Jan-02 17:54N 33°08' W 117°23'3 7.3
2018-Jan-02 17:30N 33°11' W 117°24'  

Dump ship's entire track history